sensor_id;sensor_type;location;lat;lon;timestamp;P1;durP1;ratioP1;P2;durP2;ratioP2
22230;SDS011;11284;48.086;-1.652;2024-03-22T00:02:17;10.32;;;6.57;;
22230;SDS011;11284;48.086;-1.652;2024-03-22T00:04:43;9.55;;;6.53;;
22230;SDS011;11284;48.086;-1.652;2024-03-22T00:07:09;11.65;;;6.90;;
22230;SDS011;11284;48.086;-1.652;2024-03-22T00:09:35;10.57;;;7.20;;
22230;SDS011;11284;48.086;-1.652;2024-03-22T00:12:01;12.35;;;6.88;;
22230;SDS011;11284;48.086;-1.652;2024-03-22T00:14:27;11.10;;;7.20;;
22230;SDS011;11284;48.086;-1.652;2024-03-22T00:16:53;11.15;;;7.13;;
22230;SDS011;11284;48.086;-1.652;2024-03-22T00:19:19;10.35;;;6.95;;
22230;SDS011;11284;48.086;-1.652;2024-03-22T00:21:45;11.85;;;8.10;;
22230;SDS011;11284;48.086;-1.652;2024-03-22T00:24:11;11.35;;;7.18;;
22230;SDS011;11284;48.086;-1.652;2024-03-22T00:26:37;11.27;;;7.53;;
22230;SDS011;11284;48.086;-1.652;2024-03-22T00:29:03;11.25;;;7.93;;
22230;SDS011;11284;48.086;-1.652;2024-03-22T00:31:29;11.27;;;7.50;;
22230;SDS011;11284;48.086;-1.652;2024-03-22T00:33:55;12.10;;;8.40;;
22230;SDS011;11284;48.086;-1.652;2024-03-22T00:36:21;12.18;;;8.07;;
22230;SDS011;11284;48.086;-1.652;2024-03-22T00:38:47;12.57;;;7.90;;
22230;SDS011;11284;48.086;-1.652;2024-03-22T00:41:13;10.73;;;7.88;;
22230;SDS011;11284;48.086;-1.652;2024-03-22T00:43:39;11.55;;;8.07;;
22230;SDS011;11284;48.086;-1.652;2024-03-22T00:46:05;12.90;;;8.93;;
22230;SDS011;11284;48.086;-1.652;2024-03-22T00:48:32;11.77;;;8.02;;
22230;SDS011;11284;48.086;-1.652;2024-03-22T00:51:00;12.43;;;7.50;;
22230;SDS011;11284;48.086;-1.652;2024-03-22T00:53:26;13.63;;;8.20;;
22230;SDS011;11284;48.086;-1.652;2024-03-22T00:55:53;12.48;;;8.43;;
22230;SDS011;11284;48.086;-1.652;2024-03-22T00:58:19;11.98;;;8.15;;
22230;SDS011;11284;48.086;-1.652;2024-03-22T01:00:46;12.50;;;8.07;;
22230;SDS011;11284;48.086;-1.652;2024-03-22T01:03:12;13.18;;;8.82;;
22230;SDS011;11284;48.086;-1.652;2024-03-22T01:05:38;12.68;;;8.32;;
22230;SDS011;11284;48.086;-1.652;2024-03-22T01:08:05;12.45;;;8.52;;
22230;SDS011;11284;48.086;-1.652;2024-03-22T01:10:32;12.45;;;8.40;;
22230;SDS011;11284;48.086;-1.652;2024-03-22T01:12:58;11.63;;;8.50;;
22230;SDS011;11284;48.086;-1.652;2024-03-22T01:15:25;12.52;;;8.65;;
22230;SDS011;11284;48.086;-1.652;2024-03-22T01:17:52;13.38;;;8.48;;
22230;SDS011;11284;48.086;-1.652;2024-03-22T01:20:18;12.30;;;8.45;;
22230;SDS011;11284;48.086;-1.652;2024-03-22T01:22:44;13.18;;;8.40;;
22230;SDS011;11284;48.086;-1.652;2024-03-22T01:25:10;13.10;;;8.23;;
22230;SDS011;11284;48.086;-1.652;2024-03-22T01:27:36;12.55;;;8.93;;
22230;SDS011;11284;48.086;-1.652;2024-03-22T01:30:02;14.05;;;8.15;;
22230;SDS011;11284;48.086;-1.652;2024-03-22T01:32:28;12.25;;;8.98;;
22230;SDS011;11284;48.086;-1.652;2024-03-22T01:34:54;18.42;;;8.80;;
22230;SDS011;11284;48.086;-1.652;2024-03-22T01:37:20;13.98;;;8.77;;
22230;SDS011;11284;48.086;-1.652;2024-03-22T01:39:46;14.85;;;9.32;;
22230;SDS011;11284;48.086;-1.652;2024-03-22T01:42:12;13.75;;;8.77;;
22230;SDS011;11284;48.086;-1.652;2024-03-22T01:44:38;20.25;;;8.70;;
22230;SDS011;11284;48.086;-1.652;2024-03-22T01:47:04;21.95;;;9.52;;
22230;SDS011;11284;48.086;-1.652;2024-03-22T01:49:30;16.55;;;11.25;;
22230;SDS011;11284;48.086;-1.652;2024-03-22T01:51:56;27.15;;;9.63;;
22230;SDS011;11284;48.086;-1.652;2024-03-22T01:54:22;14.65;;;9.63;;
22230;SDS011;11284;48.086;-1.652;2024-03-22T01:56:48;13.82;;;9.75;;
22230;SDS011;11284;48.086;-1.652;2024-03-22T01:59:14;17.52;;;9.07;;
22230;SDS011;11284;48.086;-1.652;2024-03-22T02:01:41;22.70;;;9.68;;
22230;SDS011;11284;48.086;-1.652;2024-03-22T02:04:07;55.55;;;10.65;;
22230;SDS011;11284;48.086;-1.652;2024-03-22T02:06:33;18.45;;;9.52;;
22230;SDS011;11284;48.086;-1.652;2024-03-22T02:08:59;26.10;;;9.52;;
22230;SDS011;11284;48.086;-1.652;2024-03-22T02:11:26;12.45;;;8.88;;
22230;SDS011;11284;48.086;-1.652;2024-03-22T02:13:52;29.70;;;9.70;;
22230;SDS011;11284;48.086;-1.652;2024-03-22T02:16:18;53.28;;;10.07;;
22230;SDS011;11284;48.086;-1.652;2024-03-22T02:18:44;26.02;;;9.38;;
22230;SDS011;11284;48.086;-1.652;2024-03-22T02:21:10;15.60;;;9.25;;
22230;SDS011;11284;48.086;-1.652;2024-03-22T02:23:36;40.58;;;9.88;;
22230;SDS011;11284;48.086;-1.652;2024-03-22T02:26:03;44.40;;;9.43;;
22230;SDS011;11284;48.086;-1.652;2024-03-22T02:28:30;17.05;;;9.55;;
22230;SDS011;11284;48.086;-1.652;2024-03-22T02:30:57;40.35;;;10.27;;
22230;SDS011;11284;48.086;-1.652;2024-03-22T02:33:23;20.40;;;9.80;;
22230;SDS011;11284;48.086;-1.652;2024-03-22T02:35:49;41.47;;;9.65;;
22230;SDS011;11284;48.086;-1.652;2024-03-22T02:38:16;20.85;;;8.90;;
22230;SDS011;11284;48.086;-1.652;2024-03-22T02:40:42;40.50;;;9.55;;
22230;SDS011;11284;48.086;-1.652;2024-03-22T02:43:08;36.53;;;8.95;;
22230;SDS011;11284;48.086;-1.652;2024-03-22T02:45:34;15.80;;;9.02;;
22230;SDS011;11284;48.086;-1.652;2024-03-22T02:48:00;16.95;;;8.77;;
22230;SDS011;11284;48.086;-1.652;2024-03-22T02:50:26;15.55;;;8.93;;
22230;SDS011;11284;48.086;-1.652;2024-03-22T02:52:52;14.13;;;9.05;;
22230;SDS011;11284;48.086;-1.652;2024-03-22T02:55:18;17.33;;;9.13;;
22230;SDS011;11284;48.086;-1.652;2024-03-22T02:57:44;15.10;;;8.95;;
22230;SDS011;11284;48.086;-1.652;2024-03-22T03:00:10;20.13;;;8.73;;
22230;SDS011;11284;48.086;-1.652;2024-03-22T03:02:36;20.13;;;9.55;;
22230;SDS011;11284;48.086;-1.652;2024-03-22T03:05:02;30.77;;;9.45;;
22230;SDS011;11284;48.086;-1.652;2024-03-22T03:07:29;50.40;;;9.57;;
22230;SDS011;11284;48.086;-1.652;2024-03-22T03:09:55;14.88;;;8.10;;
22230;SDS011;11284;48.086;-1.652;2024-03-22T03:12:21;18.05;;;9.57;;
22230;SDS011;11284;48.086;-1.652;2024-03-22T03:14:47;28.85;;;9.25;;
22230;SDS011;11284;48.086;-1.652;2024-03-22T03:17:12;15.00;;;9.32;;
22230;SDS011;11284;48.086;-1.652;2024-03-22T03:19:38;18.65;;;9.57;;
22230;SDS011;11284;48.086;-1.652;2024-03-22T03:22:04;20.63;;;11.70;;
22230;SDS011;11284;48.086;-1.652;2024-03-22T03:24:30;26.45;;;14.95;;
22230;SDS011;11284;48.086;-1.652;2024-03-22T03:26:56;23.15;;;15.15;;
22230;SDS011;11284;48.086;-1.652;2024-03-22T03:29:22;26.63;;;16.27;;
22230;SDS011;11284;48.086;-1.652;2024-03-22T03:31:48;25.77;;;16.50;;
22230;SDS011;11284;48.086;-1.652;2024-03-22T03:34:14;23.05;;;15.80;;
22230;SDS011;11284;48.086;-1.652;2024-03-22T03:36:41;21.17;;;15.18;;
22230;SDS011;11284;48.086;-1.652;2024-03-22T03:39:06;22.92;;;12.85;;
22230;SDS011;11284;48.086;-1.652;2024-03-22T03:41:33;20.85;;;13.20;;
22230;SDS011;11284;48.086;-1.652;2024-03-22T03:43:59;18.67;;;12.85;;
22230;SDS011;11284;48.086;-1.652;2024-03-22T03:46:25;17.73;;;11.75;;
22230;SDS011;11284;48.086;-1.652;2024-03-22T03:48:51;16.67;;;11.57;;
22230;SDS011;11284;48.086;-1.652;2024-03-22T03:51:17;17.33;;;11.65;;
22230;SDS011;11284;48.086;-1.652;2024-03-22T03:53:43;15.20;;;10.80;;
22230;SDS011;11284;48.086;-1.652;2024-03-22T03:56:09;19.77;;;11.50;;
22230;SDS011;11284;48.086;-1.652;2024-03-22T03:58:35;17.42;;;11.52;;
22230;SDS011;11284;48.086;-1.652;2024-03-22T04:01:07;20.52;;;10.43;;
22230;SDS011;11284;48.086;-1.652;2024-03-22T04:03:33;15.73;;;10.68;;
22230;SDS011;11284;48.086;-1.652;2024-03-22T04:05:59;18.40;;;11.60;;
22230;SDS011;11284;48.086;-1.652;2024-03-22T04:08:26;16.88;;;11.10;;
22230;SDS011;11284;48.086;-1.652;2024-03-22T04:10:52;19.15;;;10.95;;
22230;SDS011;11284;48.086;-1.652;2024-03-22T04:13:21;18.30;;;10.52;;
22230;SDS011;11284;48.086;-1.652;2024-03-22T04:15:47;24.52;;;11.52;;
22230;SDS011;11284;48.086;-1.652;2024-03-22T04:18:13;16.25;;;11.10;;
22230;SDS011;11284;48.086;-1.652;2024-03-22T04:20:39;15.55;;;10.52;;
22230;SDS011;11284;48.086;-1.652;2024-03-22T04:23:05;15.20;;;10.98;;
22230;SDS011;11284;48.086;-1.652;2024-03-22T04:25:30;18.73;;;11.05;;
22230;SDS011;11284;48.086;-1.652;2024-03-22T04:27:56;20.38;;;11.32;;
22230;SDS011;11284;48.086;-1.652;2024-03-22T04:30:22;16.45;;;10.93;;
22230;SDS011;11284;48.086;-1.652;2024-03-22T04:32:48;14.23;;;10.25;;
22230;SDS011;11284;48.086;-1.652;2024-03-22T04:35:14;13.65;;;10.15;;
22230;SDS011;11284;48.086;-1.652;2024-03-22T04:37:40;13.30;;;10.25;;
22230;SDS011;11284;48.086;-1.652;2024-03-22T04:40:07;13.55;;;9.20;;
22230;SDS011;11284;48.086;-1.652;2024-03-22T04:42:34;14.02;;;9.55;;
22230;SDS011;11284;48.086;-1.652;2024-03-22T04:45:00;13.98;;;8.88;;
22230;SDS011;11284;48.086;-1.652;2024-03-22T04:47:26;12.10;;;8.95;;
22230;SDS011;11284;48.086;-1.652;2024-03-22T04:49:52;12.50;;;8.82;;
22230;SDS011;11284;48.086;-1.652;2024-03-22T04:52:18;13.73;;;8.13;;
22230;SDS011;11284;48.086;-1.652;2024-03-22T04:54:44;12.52;;;9.27;;
22230;SDS011;11284;48.086;-1.652;2024-03-22T04:57:12;12.50;;;8.63;;
22230;SDS011;11284;48.086;-1.652;2024-03-22T04:59:38;12.95;;;9.10;;
22230;SDS011;11284;48.086;-1.652;2024-03-22T05:02:04;14.40;;;9.68;;
22230;SDS011;11284;48.086;-1.652;2024-03-22T05:04:30;12.75;;;9.02;;
22230;SDS011;11284;48.086;-1.652;2024-03-22T05:06:56;11.90;;;8.93;;
22230;SDS011;11284;48.086;-1.652;2024-03-22T05:09:22;11.18;;;8.65;;
22230;SDS011;11284;48.086;-1.652;2024-03-22T05:11:48;12.35;;;8.90;;
22230;SDS011;11284;48.086;-1.652;2024-03-22T05:14:15;13.45;;;9.63;;
22230;SDS011;11284;48.086;-1.652;2024-03-22T05:16:41;13.32;;;9.90;;
22230;SDS011;11284;48.086;-1.652;2024-03-22T05:19:07;13.25;;;9.20;;
22230;SDS011;11284;48.086;-1.652;2024-03-22T05:21:33;14.00;;;9.38;;
22230;SDS011;11284;48.086;-1.652;2024-03-22T05:23:59;12.93;;;9.55;;
22230;SDS011;11284;48.086;-1.652;2024-03-22T05:26:25;12.32;;;9.02;;
22230;SDS011;11284;48.086;-1.652;2024-03-22T05:28:51;12.75;;;9.52;;
22230;SDS011;11284;48.086;-1.652;2024-03-22T05:31:17;14.35;;;10.15;;
22230;SDS011;11284;48.086;-1.652;2024-03-22T05:33:43;13.30;;;9.98;;
22230;SDS011;11284;48.086;-1.652;2024-03-22T05:36:09;14.95;;;10.25;;
22230;SDS011;11284;48.086;-1.652;2024-03-22T05:38:35;14.35;;;10.18;;
22230;SDS011;11284;48.086;-1.652;2024-03-22T05:41:04;15.93;;;11.15;;
22230;SDS011;11284;48.086;-1.652;2024-03-22T05:43:30;14.98;;;10.45;;
22230;SDS011;11284;48.086;-1.652;2024-03-22T05:45:56;12.07;;;9.55;;
22230;SDS011;11284;48.086;-1.652;2024-03-22T05:48:22;15.43;;;10.48;;
22230;SDS011;11284;48.086;-1.652;2024-03-22T05:50:48;17.52;;;11.80;;
22230;SDS011;11284;48.086;-1.652;2024-03-22T05:53:14;13.95;;;11.00;;
22230;SDS011;11284;48.086;-1.652;2024-03-22T05:55:41;15.38;;;10.60;;
22230;SDS011;11284;48.086;-1.652;2024-03-22T05:58:08;14.57;;;10.90;;
22230;SDS011;11284;48.086;-1.652;2024-03-22T06:00:34;15.90;;;11.23;;
22230;SDS011;11284;48.086;-1.652;2024-03-22T06:03:00;13.95;;;10.68;;
22230;SDS011;11284;48.086;-1.652;2024-03-22T06:05:26;14.18;;;10.90;;
22230;SDS011;11284;48.086;-1.652;2024-03-22T06:07:52;15.52;;;10.77;;
22230;SDS011;11284;48.086;-1.652;2024-03-22T06:10:18;15.40;;;10.98;;
22230;SDS011;11284;48.086;-1.652;2024-03-22T06:12:44;15.65;;;11.32;;
22230;SDS011;11284;48.086;-1.652;2024-03-22T06:15:12;15.23;;;11.43;;
22230;SDS011;11284;48.086;-1.652;2024-03-22T06:17:38;15.70;;;11.07;;
22230;SDS011;11284;48.086;-1.652;2024-03-22T06:20:04;16.88;;;12.40;;
22230;SDS011;11284;48.086;-1.652;2024-03-22T06:22:30;17.45;;;11.68;;
22230;SDS011;11284;48.086;-1.652;2024-03-22T06:24:56;15.77;;;11.50;;
22230;SDS011;11284;48.086;-1.652;2024-03-22T06:27:23;15.73;;;11.38;;
22230;SDS011;11284;48.086;-1.652;2024-03-22T06:29:49;14.90;;;11.05;;
22230;SDS011;11284;48.086;-1.652;2024-03-22T06:32:15;13.90;;;10.95;;
22230;SDS011;11284;48.086;-1.652;2024-03-22T06:34:41;13.38;;;10.52;;
22230;SDS011;11284;48.086;-1.652;2024-03-22T06:37:07;14.02;;;11.02;;
22230;SDS011;11284;48.086;-1.652;2024-03-22T06:39:33;15.23;;;10.55;;
22230;SDS011;11284;48.086;-1.652;2024-03-22T06:41:59;13.98;;;10.90;;
22230;SDS011;11284;48.086;-1.652;2024-03-22T06:44:25;15.10;;;10.93;;
22230;SDS011;11284;48.086;-1.652;2024-03-22T06:46:51;14.98;;;11.15;;
22230;SDS011;11284;48.086;-1.652;2024-03-22T06:49:18;14.38;;;11.38;;
22230;SDS011;11284;48.086;-1.652;2024-03-22T06:51:44;14.23;;;11.13;;
22230;SDS011;11284;48.086;-1.652;2024-03-22T06:54:10;15.65;;;10.80;;
22230;SDS011;11284;48.086;-1.652;2024-03-22T06:56:36;12.35;;;9.52;;
22230;SDS011;11284;48.086;-1.652;2024-03-22T06:59:02;13.05;;;9.15;;
22230;SDS011;11284;48.086;-1.652;2024-03-22T07:01:28;12.10;;;9.18;;
22230;SDS011;11284;48.086;-1.652;2024-03-22T07:03:54;12.13;;;8.77;;
22230;SDS011;11284;48.086;-1.652;2024-03-22T07:06:20;11.82;;;8.50;;
22230;SDS011;11284;48.086;-1.652;2024-03-22T07:08:46;12.98;;;9.23;;
22230;SDS011;11284;48.086;-1.652;2024-03-22T07:11:12;14.63;;;9.07;;
22230;SDS011;11284;48.086;-1.652;2024-03-22T07:13:38;12.95;;;9.18;;
22230;SDS011;11284;48.086;-1.652;2024-03-22T07:16:04;12.35;;;9.18;;
22230;SDS011;11284;48.086;-1.652;2024-03-22T07:18:30;14.30;;;9.77;;
22230;SDS011;11284;48.086;-1.652;2024-03-22T07:20:56;12.85;;;9.63;;
22230;SDS011;11284;48.086;-1.652;2024-03-22T07:23:27;13.30;;;10.00;;
22230;SDS011;11284;48.086;-1.652;2024-03-22T07:25:53;13.07;;;9.85;;
22230;SDS011;11284;48.086;-1.652;2024-03-22T07:28:19;12.88;;;9.80;;
22230;SDS011;11284;48.086;-1.652;2024-03-22T07:30:45;12.45;;;9.40;;
22230;SDS011;11284;48.086;-1.652;2024-03-22T07:33:11;12.40;;;9.10;;
22230;SDS011;11284;48.086;-1.652;2024-03-22T07:35:42;13.07;;;10.10;;
22230;SDS011;11284;48.086;-1.652;2024-03-22T07:38:08;14.88;;;10.35;;
22230;SDS011;11284;48.086;-1.652;2024-03-22T07:40:34;13.40;;;9.82;;
22230;SDS011;11284;48.086;-1.652;2024-03-22T07:43:00;16.17;;;10.48;;
22230;SDS011;11284;48.086;-1.652;2024-03-22T07:45:31;14.20;;;10.25;;
22230;SDS011;11284;48.086;-1.652;2024-03-22T07:47:57;14.48;;;10.63;;
22230;SDS011;11284;48.086;-1.652;2024-03-22T07:50:23;14.73;;;10.77;;
22230;SDS011;11284;48.086;-1.652;2024-03-22T07:52:49;22.55;;;10.25;;
22230;SDS011;11284;48.086;-1.652;2024-03-22T07:55:15;12.95;;;8.48;;
22230;SDS011;11284;48.086;-1.652;2024-03-22T07:57:41;13.43;;;8.75;;
22230;SDS011;11284;48.086;-1.652;2024-03-22T08:00:07;12.05;;;8.60;;
22230;SDS011;11284;48.086;-1.652;2024-03-22T08:02:35;14.55;;;9.52;;
22230;SDS011;11284;48.086;-1.652;2024-03-22T08:05:01;14.52;;;8.82;;
22230;SDS011;11284;48.086;-1.652;2024-03-22T08:07:27;11.07;;;8.77;;
22230;SDS011;11284;48.086;-1.652;2024-03-22T08:09:54;14.45;;;9.80;;
22230;SDS011;11284;48.086;-1.652;2024-03-22T08:12:21;14.70;;;9.23;;
22230;SDS011;11284;48.086;-1.652;2024-03-22T08:14:47;13.10;;;8.95;;
22230;SDS011;11284;48.086;-1.652;2024-03-22T08:17:13;13.05;;;9.05;;
22230;SDS011;11284;48.086;-1.652;2024-03-22T08:19:39;15.15;;;9.02;;
22230;SDS011;11284;48.086;-1.652;2024-03-22T08:22:05;11.93;;;8.70;;
22230;SDS011;11284;48.086;-1.652;2024-03-22T08:24:31;13.40;;;8.77;;
22230;SDS011;11284;48.086;-1.652;2024-03-22T08:26:58;13.38;;;8.90;;
22230;SDS011;11284;48.086;-1.652;2024-03-22T08:29:24;12.63;;;9.30;;
22230;SDS011;11284;48.086;-1.652;2024-03-22T08:31:50;12.70;;;8.82;;
22230;SDS011;11284;48.086;-1.652;2024-03-22T08:34:16;11.65;;;8.45;;
22230;SDS011;11284;48.086;-1.652;2024-03-22T08:36:42;12.15;;;8.63;;
22230;SDS011;11284;48.086;-1.652;2024-03-22T08:39:08;11.68;;;8.18;;
22230;SDS011;11284;48.086;-1.652;2024-03-22T08:41:36;15.43;;;8.88;;
22230;SDS011;11284;48.086;-1.652;2024-03-22T08:44:02;11.10;;;7.68;;
22230;SDS011;11284;48.086;-1.652;2024-03-22T08:46:28;11.77;;;8.70;;
22230;SDS011;11284;48.086;-1.652;2024-03-22T08:48:54;15.15;;;8.70;;
22230;SDS011;11284;48.086;-1.652;2024-03-22T08:51:21;13.25;;;8.32;;
22230;SDS011;11284;48.086;-1.652;2024-03-22T08:53:47;13.60;;;9.05;;
22230;SDS011;11284;48.086;-1.652;2024-03-22T08:56:13;13.73;;;8.32;;
22230;SDS011;11284;48.086;-1.652;2024-03-22T08:58:39;11.57;;;8.20;;
22230;SDS011;11284;48.086;-1.652;2024-03-22T09:01:05;12.95;;;7.80;;
22230;SDS011;11284;48.086;-1.652;2024-03-22T09:03:31;10.95;;;7.20;;
22230;SDS011;11284;48.086;-1.652;2024-03-22T09:05:58;9.85;;;7.10;;
22230;SDS011;11284;48.086;-1.652;2024-03-22T09:08:24;11.30;;;7.88;;
22230;SDS011;11284;48.086;-1.652;2024-03-22T09:10:51;10.25;;;7.85;;
22230;SDS011;11284;48.086;-1.652;2024-03-22T09:13:17;11.27;;;7.82;;
22230;SDS011;11284;48.086;-1.652;2024-03-22T09:15:43;9.52;;;7.28;;
22230;SDS011;11284;48.086;-1.652;2024-03-22T09:18:09;11.02;;;7.15;;
22230;SDS011;11284;48.086;-1.652;2024-03-22T09:20:35;9.52;;;6.55;;
22230;SDS011;11284;48.086;-1.652;2024-03-22T09:23:01;11.95;;;8.13;;
22230;SDS011;11284;48.086;-1.652;2024-03-22T09:25:29;10.85;;;7.40;;
22230;SDS011;11284;48.086;-1.652;2024-03-22T09:27:54;11.35;;;6.88;;
22230;SDS011;11284;48.086;-1.652;2024-03-22T09:30:20;11.20;;;7.50;;
22230;SDS011;11284;48.086;-1.652;2024-03-22T09:32:47;10.43;;;7.07;;
22230;SDS011;11284;48.086;-1.652;2024-03-22T09:35:13;10.88;;;6.90;;
22230;SDS011;11284;48.086;-1.652;2024-03-22T09:37:42;10.48;;;7.03;;
22230;SDS011;11284;48.086;-1.652;2024-03-22T09:40:09;9.98;;;7.05;;
22230;SDS011;11284;48.086;-1.652;2024-03-22T09:42:37;10.13;;;7.68;;
22230;SDS011;11284;48.086;-1.652;2024-03-22T09:45:09;11.80;;;7.25;;
22230;SDS011;11284;48.086;-1.652;2024-03-22T09:47:38;11.05;;;6.68;;
22230;SDS011;11284;48.086;-1.652;2024-03-22T09:50:08;11.55;;;7.15;;
22230;SDS011;11284;48.086;-1.652;2024-03-22T09:52:34;10.18;;;7.20;;
22230;SDS011;11284;48.086;-1.652;2024-03-22T09:55:01;10.45;;;7.03;;
22230;SDS011;11284;48.086;-1.652;2024-03-22T09:57:29;11.02;;;7.03;;
22230;SDS011;11284;48.086;-1.652;2024-03-22T09:59:56;11.02;;;7.70;;
22230;SDS011;11284;48.086;-1.652;2024-03-22T10:02:22;10.73;;;7.50;;
22230;SDS011;11284;48.086;-1.652;2024-03-22T10:04:51;11.50;;;7.72;;
22230;SDS011;11284;48.086;-1.652;2024-03-22T10:07:17;11.85;;;7.60;;
22230;SDS011;11284;48.086;-1.652;2024-03-22T10:09:44;11.65;;;7.70;;
22230;SDS011;11284;48.086;-1.652;2024-03-22T10:12:11;11.40;;;7.80;;
22230;SDS011;11284;48.086;-1.652;2024-03-22T10:14:37;13.27;;;8.20;;
22230;SDS011;11284;48.086;-1.652;2024-03-22T10:17:05;14.52;;;8.75;;
22230;SDS011;11284;48.086;-1.652;2024-03-22T10:19:32;10.80;;;7.47;;
22230;SDS011;11284;48.086;-1.652;2024-03-22T10:22:01;12.05;;;8.25;;
22230;SDS011;11284;48.086;-1.652;2024-03-22T10:24:28;10.30;;;8.02;;
22230;SDS011;11284;48.086;-1.652;2024-03-22T10:26:53;12.82;;;8.65;;
22230;SDS011;11284;48.086;-1.652;2024-03-22T10:29:20;11.93;;;7.93;;
22230;SDS011;11284;48.086;-1.652;2024-03-22T10:31:47;10.57;;;7.57;;
22230;SDS011;11284;48.086;-1.652;2024-03-22T10:34:13;11.52;;;7.65;;
22230;SDS011;11284;48.086;-1.652;2024-03-22T10:36:39;11.05;;;7.93;;
22230;SDS011;11284;48.086;-1.652;2024-03-22T10:39:05;11.88;;;7.65;;
22230;SDS011;11284;48.086;-1.652;2024-03-22T10:41:33;11.60;;;8.40;;
22230;SDS011;11284;48.086;-1.652;2024-03-22T10:43:59;11.75;;;8.32;;
22230;SDS011;11284;48.086;-1.652;2024-03-22T10:46:29;12.23;;;8.43;;
22230;SDS011;11284;48.086;-1.652;2024-03-22T10:48:55;11.38;;;7.80;;
22230;SDS011;11284;48.086;-1.652;2024-03-22T10:51:23;10.85;;;7.53;;
22230;SDS011;11284;48.086;-1.652;2024-03-22T10:53:49;11.20;;;7.55;;
22230;SDS011;11284;48.086;-1.652;2024-03-22T10:56:16;10.38;;;7.28;;
22230;SDS011;11284;48.086;-1.652;2024-03-22T10:58:42;10.93;;;7.72;;
22230;SDS011;11284;48.086;-1.652;2024-03-22T11:01:23;10.90;;;7.68;;
22230;SDS011;11284;48.086;-1.652;2024-03-22T11:03:49;10.38;;;7.43;;
22230;SDS011;11284;48.086;-1.652;2024-03-22T11:06:19;10.05;;;6.88;;
22230;SDS011;11284;48.086;-1.652;2024-03-22T11:08:49;10.00;;;7.35;;
22230;SDS011;11284;48.086;-1.652;2024-03-22T11:11:17;10.32;;;7.80;;
22230;SDS011;11284;48.086;-1.652;2024-03-22T11:13:47;11.25;;;7.63;;
22230;SDS011;11284;48.086;-1.652;2024-03-22T11:16:14;10.07;;;7.72;;
22230;SDS011;11284;48.086;-1.652;2024-03-22T11:18:40;9.95;;;7.28;;
22230;SDS011;11284;48.086;-1.652;2024-03-22T11:21:06;12.90;;;7.43;;
22230;SDS011;11284;48.086;-1.652;2024-03-22T11:23:34;10.52;;;7.43;;
22230;SDS011;11284;48.086;-1.652;2024-03-22T11:26:01;9.98;;;7.40;;
22230;SDS011;11284;48.086;-1.652;2024-03-22T11:28:27;10.38;;;7.78;;
22230;SDS011;11284;48.086;-1.652;2024-03-22T11:30:53;11.77;;;7.43;;
22230;SDS011;11284;48.086;-1.652;2024-03-22T11:33:19;10.45;;;7.65;;
22230;SDS011;11284;48.086;-1.652;2024-03-22T11:35:45;10.60;;;7.97;;
22230;SDS011;11284;48.086;-1.652;2024-03-22T11:38:11;11.75;;;8.30;;
22230;SDS011;11284;48.086;-1.652;2024-03-22T11:40:37;10.07;;;7.85;;
22230;SDS011;11284;48.086;-1.652;2024-03-22T11:43:03;10.77;;;7.90;;
22230;SDS011;11284;48.086;-1.652;2024-03-22T11:45:30;12.63;;;7.95;;
22230;SDS011;11284;48.086;-1.652;2024-03-22T11:48:01;10.93;;;8.25;;
22230;SDS011;11284;48.086;-1.652;2024-03-22T11:50:27;10.45;;;7.93;;
22230;SDS011;11284;48.086;-1.652;2024-03-22T11:52:53;10.75;;;7.50;;
22230;SDS011;11284;48.086;-1.652;2024-03-22T11:55:19;10.82;;;8.45;;
22230;SDS011;11284;48.086;-1.652;2024-03-22T11:57:48;10.07;;;7.93;;
22230;SDS011;11284;48.086;-1.652;2024-03-22T12:00:15;11.98;;;8.68;;
22230;SDS011;11284;48.086;-1.652;2024-03-22T12:02:41;10.32;;;7.88;;
22230;SDS011;11284;48.086;-1.652;2024-03-22T12:05:07;9.82;;;7.50;;
22230;SDS011;11284;48.086;-1.652;2024-03-22T12:07:34;10.50;;;8.27;;
22230;SDS011;11284;48.086;-1.652;2024-03-22T12:10:00;10.75;;;8.50;;
22230;SDS011;11284;48.086;-1.652;2024-03-22T12:12:26;10.85;;;8.15;;
22230;SDS011;11284;48.086;-1.652;2024-03-22T12:14:52;9.98;;;7.43;;
22230;SDS011;11284;48.086;-1.652;2024-03-22T12:17:18;9.30;;;7.20;;
22230;SDS011;11284;48.086;-1.652;2024-03-22T12:19:44;11.20;;;8.10;;
22230;SDS011;11284;48.086;-1.652;2024-03-22T12:22:10;9.68;;;7.55;;
22230;SDS011;11284;48.086;-1.652;2024-03-22T12:24:36;10.85;;;8.55;;
22230;SDS011;11284;48.086;-1.652;2024-03-22T12:27:02;11.32;;;7.90;;
22230;SDS011;11284;48.086;-1.652;2024-03-22T12:29:28;10.95;;;7.75;;
22230;SDS011;11284;48.086;-1.652;2024-03-22T12:31:54;10.68;;;7.53;;
22230;SDS011;11284;48.086;-1.652;2024-03-22T12:34:20;9.55;;;6.95;;
22230;SDS011;11284;48.086;-1.652;2024-03-22T12:36:46;10.23;;;7.18;;
22230;SDS011;11284;48.086;-1.652;2024-03-22T12:39:12;9.30;;;6.43;;
22230;SDS011;11284;48.086;-1.652;2024-03-22T12:41:38;10.70;;;7.10;;
22230;SDS011;11284;48.086;-1.652;2024-03-22T12:44:04;9.95;;;7.63;;
22230;SDS011;11284;48.086;-1.652;2024-03-22T12:46:30;9.95;;;7.47;;
22230;SDS011;11284;48.086;-1.652;2024-03-22T12:48:56;9.15;;;7.05;;
22230;SDS011;11284;48.086;-1.652;2024-03-22T12:51:22;11.32;;;7.53;;
22230;SDS011;11284;48.086;-1.652;2024-03-22T12:53:49;10.65;;;7.60;;
22230;SDS011;11284;48.086;-1.652;2024-03-22T12:56:15;9.20;;;7.82;;
22230;SDS011;11284;48.086;-1.652;2024-03-22T12:58:41;9.38;;;7.82;;
22230;SDS011;11284;48.086;-1.652;2024-03-22T13:01:07;11.50;;;7.72;;
22230;SDS011;11284;48.086;-1.652;2024-03-22T13:03:35;9.30;;;7.10;;
22230;SDS011;11284;48.086;-1.652;2024-03-22T13:06:02;35.42;;;30.58;;
22230;SDS011;11284;48.086;-1.652;2024-03-22T13:08:28;15.63;;;12.18;;
22230;SDS011;11284;48.086;-1.652;2024-03-22T13:10:54;10.52;;;8.25;;
22230;SDS011;11284;48.086;-1.652;2024-03-22T13:13:20;10.40;;;7.70;;
22230;SDS011;11284;48.086;-1.652;2024-03-22T13:15:46;10.50;;;8.10;;
22230;SDS011;11284;48.086;-1.652;2024-03-22T13:18:12;11.70;;;8.07;;
22230;SDS011;11284;48.086;-1.652;2024-03-22T13:20:38;11.23;;;8.63;;
22230;SDS011;11284;48.086;-1.652;2024-03-22T13:23:04;12.30;;;7.75;;
22230;SDS011;11284;48.086;-1.652;2024-03-22T13:25:30;9.68;;;7.20;;
22230;SDS011;11284;48.086;-1.652;2024-03-22T13:27:57;8.10;;;5.70;;
22230;SDS011;11284;48.086;-1.652;2024-03-22T13:30:23;11.15;;;6.82;;
22230;SDS011;11284;48.086;-1.652;2024-03-22T13:32:49;10.13;;;6.80;;
22230;SDS011;11284;48.086;-1.652;2024-03-22T13:35:15;7.75;;;6.47;;
22230;SDS011;11284;48.086;-1.652;2024-03-22T13:37:41;9.60;;;7.28;;
22230;SDS011;11284;48.086;-1.652;2024-03-22T13:40:07;9.45;;;7.00;;
22230;SDS011;11284;48.086;-1.652;2024-03-22T13:42:33;9.88;;;6.53;;
22230;SDS011;11284;48.086;-1.652;2024-03-22T13:44:59;9.95;;;6.93;;
22230;SDS011;11284;48.086;-1.652;2024-03-22T13:47:26;10.13;;;6.32;;
22230;SDS011;11284;48.086;-1.652;2024-03-22T13:49:53;7.57;;;6.32;;
22230;SDS011;11284;48.086;-1.652;2024-03-22T13:52:19;9.00;;;6.32;;
22230;SDS011;11284;48.086;-1.652;2024-03-22T13:54:48;7.30;;;5.43;;
22230;SDS011;11284;48.086;-1.652;2024-03-22T13:57:17;10.43;;;6.63;;
22230;SDS011;11284;48.086;-1.652;2024-03-22T13:59:43;9.07;;;7.10;;
22230;SDS011;11284;48.086;-1.652;2024-03-22T14:02:09;8.98;;;6.60;;
22230;SDS011;11284;48.086;-1.652;2024-03-22T14:04:35;8.60;;;5.90;;
22230;SDS011;11284;48.086;-1.652;2024-03-22T14:07:01;8.75;;;6.57;;
22230;SDS011;11284;48.086;-1.652;2024-03-22T14:09:31;9.82;;;6.13;;
22230;SDS011;11284;48.086;-1.652;2024-03-22T14:11:58;7.88;;;4.95;;
22230;SDS011;11284;48.086;-1.652;2024-03-22T14:14:24;6.55;;;5.00;;
22230;SDS011;11284;48.086;-1.652;2024-03-22T14:16:51;6.65;;;5.00;;